createdAt,value
2023-01-25T00:01:15.690Z,7.67
2023-01-25T00:03:41.986Z,6.17
2023-01-25T00:06:08.731Z,9.00
2023-01-25T00:08:35.136Z,7.07
2023-01-25T00:11:01.447Z,8.07
2023-01-25T00:13:27.755Z,9.23
2023-01-25T00:15:54.072Z,8.93
2023-01-25T00:18:21.283Z,8.93
2023-01-25T00:20:47.630Z,8.20
2023-01-25T00:23:13.989Z,7.63
2023-01-25T00:25:40.293Z,13.47
2023-01-25T00:28:06.633Z,6.70
2023-01-25T00:30:32.975Z,9.10
2023-01-25T00:33:07.238Z,6.83
2023-01-25T00:35:34.489Z,6.72
2023-01-25T00:38:02.351Z,8.80
2023-01-25T00:40:28.668Z,6.13
2023-01-25T00:42:55.744Z,7.10
2023-01-25T00:45:22.053Z,7.53
2023-01-25T00:47:48.354Z,6.77
2023-01-25T00:50:15.931Z,7.43
2023-01-25T00:52:42.273Z,7.73
2023-01-25T00:55:09.206Z,7.37
2023-01-25T00:57:35.764Z,8.03
2023-01-25T01:00:02.091Z,8.03
2023-01-25T01:02:30.263Z,7.00
2023-01-25T01:04:56.848Z,8.63
2023-01-25T01:07:23.440Z,7.03
2023-01-25T01:09:49.762Z,8.60
2023-01-25T01:12:16.102Z,8.00
2023-01-25T01:14:42.470Z,8.53
2023-01-25T01:17:08.846Z,5.57
2023-01-25T01:19:35.392Z,9.03
2023-01-25T01:22:01.738Z,7.43
2023-01-25T01:24:28.110Z,8.93
2023-01-25T01:26:54.555Z,8.03
2023-01-25T01:29:20.917Z,7.67
2023-01-25T01:31:49.713Z,8.30
2023-01-25T01:34:16.135Z,8.03
2023-01-25T01:36:42.605Z,6.77
2023-01-25T01:39:09.109Z,8.17
2023-01-25T01:41:35.500Z,7.60
2023-01-25T01:44:01.827Z,8.87
2023-01-25T01:46:28.251Z,9.00
2023-01-25T01:48:57.905Z,8.00
2023-01-25T01:51:24.294Z,8.13
2023-01-25T01:54:03.047Z,9.87
2023-01-25T01:56:33.510Z,8.83
2023-01-25T01:59:00.162Z,9.87
2023-01-25T02:04:06.705Z,7.07
2023-01-25T02:06:36.889Z,8.03
2023-01-25T02:09:03.203Z,10.40
2023-01-25T02:11:30.676Z,7.03
2023-01-25T02:13:58.087Z,7.30
2023-01-25T02:16:25.716Z,7.20
2023-01-25T02:18:53.429Z,8.57
2023-01-25T02:21:19.836Z,7.27
2023-01-25T02:24:05.722Z,7.77
2023-01-25T02:26:32.117Z,6.53
2023-01-25T02:29:00.965Z,8.57
2023-01-25T02:31:27.434Z,9.77
2023-01-25T02:33:53.804Z,8.73
2023-01-25T02:36:21.706Z,8.93
2023-01-25T02:38:59.344Z,9.20
2023-01-25T02:41:33.949Z,7.30
2023-01-25T02:44:23.556Z,8.77
2023-01-25T02:46:49.897Z,10.23
2023-01-25T02:49:16.554Z,10.60
2023-01-25T02:51:44.208Z,9.23
2023-01-25T02:54:11.994Z,9.97
2023-01-25T02:56:40.686Z,11.77
2023-01-25T02:59:07.734Z,9.27
2023-01-25T03:01:38.588Z,9.43
2023-01-25T03:04:05.591Z,10.87
2023-01-25T03:06:32.573Z,12.43
2023-01-25T03:08:59.100Z,9.10
2023-01-25T03:11:25.551Z,10.77
2023-01-25T03:13:51.855Z,8.50
2023-01-25T03:16:18.277Z,10.23
2023-01-25T03:18:44.624Z,8.90
2023-01-25T03:21:18.126Z,12.50
2023-01-25T03:23:45.180Z,9.80
2023-01-25T03:26:15.870Z,12.90
2023-01-25T03:28:42.544Z,9.90
2023-01-25T03:31:10.239Z,11.20
2023-01-25T03:33:36.984Z,10.57
2023-01-25T03:36:03.805Z,7.70
2023-01-25T03:38:30.771Z,9.43
2023-01-25T03:40:57.367Z,10.77
2023-01-25T03:43:24.050Z,11.17
2023-01-25T03:45:54.703Z,10.70
2023-01-25T03:48:21.849Z,9.67
2023-01-25T03:50:52.360Z,12.67
2023-01-25T03:53:32.161Z,13.13
2023-01-25T03:55:59.702Z,10.50
2023-01-25T03:58:26.500Z,10.53
2023-01-25T04:00:54.784Z,12.60
2023-01-25T04:03:21.627Z,9.50
2023-01-25T04:05:48.073Z,11.57
2023-01-25T04:08:14.432Z,9.33
2023-01-25T04:10:40.896Z,10.37
2023-01-25T04:13:07.294Z,10.93
2023-01-25T04:15:33.603Z,8.10
2023-01-25T04:17:59.950Z,9.70
2023-01-25T04:20:26.315Z,9.93
2023-01-25T04:22:52.739Z,9.67
2023-01-25T04:25:19.047Z,9.10
2023-01-25T04:27:45.440Z,10.13
2023-01-25T04:30:11.952Z,11.70
2023-01-25T04:32:38.364Z,10.20
2023-01-25T04:35:04.916Z,8.80
2023-01-25T04:37:31.225Z,9.63
2023-01-25T04:39:57.534Z,9.50
2023-01-25T04:42:23.994Z,7.87
2023-01-25T04:44:50.297Z,9.73
2023-01-25T04:47:16.599Z,8.07
2023-01-25T04:49:42.995Z,6.37
2023-01-25T04:52:09.316Z,12.33
2023-01-25T04:54:35.613Z,12.23
2023-01-25T04:57:01.945Z,12.20
2023-01-25T04:59:28.340Z,11.30
2023-01-25T05:01:54.881Z,10.27
2023-01-25T05:04:21.289Z,12.50
2023-01-25T05:06:47.587Z,9.77
2023-01-25T05:09:13.939Z,11.00
2023-01-25T05:11:40.238Z,11.00
2023-01-25T05:14:06.537Z,14.00
2023-01-25T05:16:32.904Z,10.70
2023-01-25T05:18:59.274Z,14.20
2023-01-25T05:21:45.109Z,9.37
2023-01-25T05:24:11.643Z,12.17
2023-01-25T05:26:56.931Z,12.67
2023-01-25T05:29:23.263Z,9.68
2023-01-25T05:31:49.762Z,12.70
2023-01-25T05:34:16.129Z,12.90
2023-01-25T05:36:42.435Z,11.37
2023-01-25T05:39:09.104Z,12.03
2023-01-25T05:41:35.521Z,11.43
2023-01-25T05:44:01.889Z,11.70
2023-01-25T05:46:28.598Z,11.73
2023-01-25T05:48:54.952Z,14.97
2023-01-25T05:51:21.361Z,11.73
2023-01-25T05:53:47.664Z,15.03
2023-01-25T05:56:14.019Z,12.53
2023-01-25T05:58:40.316Z,14.20
2023-01-25T06:01:07.877Z,14.17
2023-01-25T06:03:34.487Z,11.97
2023-01-25T06:06:04.612Z,12.47
2023-01-25T06:08:31.408Z,10.87
2023-01-25T06:10:58.359Z,15.20
2023-01-25T06:13:24.929Z,14.33
2023-01-25T06:15:52.205Z,11.83
2023-01-25T06:18:18.749Z,12.17
2023-01-25T06:20:45.054Z,13.53
2023-01-25T06:23:11.358Z,13.23
2023-01-25T06:25:37.695Z,10.17
2023-01-25T06:28:04.153Z,14.90
2023-01-25T06:30:30.457Z,11.67
2023-01-25T06:33:00.156Z,11.60
2023-01-25T06:35:26.489Z,8.97
2023-01-25T06:37:55.505Z,15.70
2023-01-25T06:40:21.929Z,10.77
2023-01-25T06:42:48.300Z,13.73
2023-01-25T06:45:14.860Z,14.40
2023-01-25T06:47:41.395Z,12.77
2023-01-25T06:50:08.370Z,13.00
2023-01-25T06:52:37.759Z,14.93
2023-01-25T06:55:04.738Z,13.63
2023-01-25T06:57:31.242Z,14.90
2023-01-25T06:59:57.545Z,11.73
2023-01-25T07:02:23.928Z,12.03
2023-01-25T07:04:50.258Z,13.70
2023-01-25T07:07:16.563Z,30.10
2023-01-25T07:09:42.981Z,32.27
2023-01-25T07:12:09.499Z,31.13
2023-01-25T07:14:35.792Z,34.30
2023-01-25T07:17:03.741Z,28.73
2023-01-25T07:19:30.458Z,32.43
2023-01-25T07:21:56.740Z,29.47
2023-01-25T07:24:27.128Z,29.90
2023-01-25T07:26:53.701Z,27.40
2023-01-25T07:29:20.071Z,30.30
2023-01-25T07:31:46.516Z,36.10
2023-01-25T07:34:13.563Z,27.87
2023-01-25T07:36:40.759Z,27.10
2023-01-25T07:39:09.219Z,27.43
2023-01-25T07:41:35.530Z,32.10
2023-01-25T07:44:01.830Z,29.50
2023-01-25T07:46:28.132Z,28.50
2023-01-25T07:48:54.590Z,32.70
2023-01-25T07:51:30.085Z,29.73
2023-01-25T07:53:57.470Z,26.40
2023-01-25T07:56:25.008Z,29.70
2023-01-25T07:58:58.074Z,29.37
2023-01-25T08:01:26.046Z,32.43
2023-01-25T08:03:53.874Z,32.87
2023-01-25T08:06:30.637Z,27.53
2023-01-25T08:08:58.320Z,24.37
2023-01-25T08:11:25.980Z,22.60
2023-01-25T08:13:52.354Z,25.47
2023-01-25T08:16:19.951Z,20.53
2023-01-25T08:18:54.837Z,33.20
2023-01-25T08:21:21.594Z,26.02
2023-01-25T08:23:47.899Z,55.83
2023-01-25T08:26:15.273Z,25.30
2023-01-25T08:28:41.589Z,28.40
2023-01-25T08:31:11.176Z,23.97
2023-01-25T08:33:38.176Z,23.60
2023-01-25T08:36:05.568Z,26.47
2023-01-25T08:38:32.326Z,23.77
2023-01-25T08:41:24.755Z,24.07
2023-01-25T08:43:52.106Z,23.23
2023-01-25T08:46:18.775Z,26.30
2023-01-25T08:48:45.098Z,22.73
2023-01-25T08:51:12.493Z,30.57
2023-01-25T08:53:39.175Z,25.20
2023-01-25T08:56:09.982Z,23.93
2023-01-25T08:58:37.878Z,25.57
2023-01-25T09:01:05.795Z,22.53
2023-01-25T09:03:35.173Z,23.00
2023-01-25T09:06:01.606Z,25.47
2023-01-25T09:08:27.919Z,20.63
2023-01-25T09:10:54.221Z,20.27
2023-01-25T09:13:20.517Z,22.47
2023-01-25T09:15:46.820Z,21.07
2023-01-25T09:18:13.217Z,21.20
2023-01-25T09:20:40.166Z,27.40
2023-01-25T09:23:06.496Z,23.80
2023-01-25T09:25:32.800Z,20.93
2023-01-25T09:27:59.973Z,23.57
2023-01-25T09:30:40.828Z,18.37
2023-01-25T09:33:16.369Z,20.08
2023-01-25T09:35:47.089Z,20.77
2023-01-25T09:38:13.380Z,19.77
2023-01-25T09:40:41.432Z,25.60
2023-01-25T09:43:30.757Z,24.10
2023-01-25T09:45:57.633Z,26.10
2023-01-25T09:48:32.395Z,27.07
2023-01-25T09:51:17.671Z,28.38
2023-01-25T09:53:51.291Z,29.77
2023-01-25T09:56:22.335Z,23.43
2023-01-25T09:58:49.411Z,26.97
2023-01-25T10:01:21.737Z,23.43
2023-01-25T10:03:53.803Z,27.35
2023-01-25T10:06:23.605Z,23.53
2023-01-25T10:08:53.435Z,24.80
2023-01-25T10:11:26.819Z,30.73
2023-01-25T10:13:55.900Z,27.30
2023-01-25T10:16:40.680Z,24.17
2023-01-25T10:19:09.783Z,26.23
2023-01-25T10:21:59.099Z,21.63
2023-01-25T10:24:44.289Z,22.77
2023-01-25T10:27:19.807Z,26.10
2023-01-25T10:29:47.185Z,23.23
2023-01-25T10:32:24.293Z,24.27
2023-01-25T10:34:56.624Z,21.73
2023-01-25T10:37:25.628Z,24.20
2023-01-25T10:40:01.315Z,28.60
2023-01-25T10:42:29.645Z,24.00
2023-01-25T10:44:56.073Z,25.80
2023-01-25T10:47:27.793Z,25.37
2023-01-25T10:49:57.785Z,49.17
2023-01-25T10:52:24.123Z,25.30
2023-01-25T10:55:07.479Z,25.23
2023-01-25T10:57:35.102Z,21.90
2023-01-25T11:00:05.425Z,25.10
2023-01-25T11:02:41.651Z,28.13
2023-01-25T11:05:26.768Z,27.77
2023-01-25T11:07:53.508Z,22.23
2023-01-25T11:10:29.267Z,26.30
2023-01-25T11:13:13.830Z,25.90
2023-01-25T11:15:41.132Z,21.38
2023-01-25T11:18:12.851Z,21.23
2023-01-25T11:20:39.259Z,30.80
2023-01-25T11:23:18.811Z,22.60
2023-01-25T11:25:45.110Z,26.23
2023-01-25T11:28:21.794Z,28.43
2023-01-25T11:30:49.021Z,24.77
2023-01-25T11:33:16.063Z,28.93
2023-01-25T11:36:01.034Z,26.87
2023-01-25T11:38:27.901Z,26.13
2023-01-25T11:41:08.330Z,44.70
2023-01-25T11:43:53.590Z,26.67
2023-01-25T11:46:31.942Z,23.77
2023-01-25T11:49:17.408Z,28.60
2023-01-25T11:51:54.112Z,24.50
2023-01-25T11:54:21.155Z,27.10
2023-01-25T11:56:54.236Z,29.07
2023-01-25T11:59:30.210Z,27.43
2023-01-25T12:02:10.911Z,26.47
2023-01-25T12:05:06.364Z,24.67
2023-01-25T12:07:44.572Z,25.83
2023-01-25T12:10:16.991Z,36.67
2023-01-25T12:12:43.406Z,22.77
2023-01-25T12:15:09.850Z,25.57
2023-01-25T12:17:36.136Z,23.87
2023-01-25T12:20:24.621Z,24.63
2023-01-25T12:22:50.908Z,29.47
2023-01-25T12:25:29.517Z,25.67
2023-01-25T12:28:06.957Z,30.30
2023-01-25T12:30:46.274Z,26.77
2023-01-25T12:33:15.640Z,30.63
2023-01-25T12:35:42.005Z,44.40
2023-01-25T12:38:29.440Z,30.17
2023-01-25T12:41:21.995Z,35.47
2023-01-25T12:43:50.539Z,24.03
2023-01-25T12:46:24.168Z,24.03
2023-01-25T12:48:52.383Z,25.77
2023-01-25T12:51:20.300Z,27.43
2023-01-25T12:53:47.302Z,24.00
2023-01-25T12:56:40.834Z,25.90
2023-01-25T12:59:13.528Z,25.67
2023-01-25T13:01:52.857Z,28.83
2023-01-25T13:04:37.398Z,31.63
2023-01-25T13:07:10.160Z,28.47
2023-01-25T13:09:42.769Z,27.63
2023-01-25T13:12:10.757Z,23.87
2023-01-25T13:14:38.448Z,28.23
2023-01-25T13:17:19.986Z,27.27
2023-01-25T13:19:46.577Z,39.83
2023-01-25T13:22:13.561Z,32.67
2023-01-25T13:25:03.869Z,29.50
2023-01-25T13:27:31.156Z,25.70
2023-01-25T13:29:59.247Z,28.87
2023-01-25T13:32:25.664Z,28.77
2023-01-25T13:34:52.028Z,31.70
2023-01-25T13:37:21.411Z,30.83
2023-01-25T13:39:49.492Z,25.50
2023-01-25T13:42:25.886Z,30.33
2023-01-25T13:44:54.400Z,24.73
2023-01-25T13:47:22.643Z,30.93
2023-01-25T13:49:51.991Z,27.63
2023-01-25T13:52:19.671Z,21.87
2023-01-25T13:54:47.020Z,25.07
2023-01-25T13:57:24.164Z,28.83
2023-01-25T14:00:11.296Z,27.73
2023-01-25T14:02:38.970Z,24.90
2023-01-25T14:05:07.990Z,27.73
2023-01-25T14:07:36.889Z,28.70
2023-01-25T14:10:08.139Z,34.20
2023-01-25T14:12:41.922Z,8.03
2023-01-25T14:15:25.075Z,26.27
2023-01-25T14:18:10.067Z,24.33
2023-01-25T14:20:36.421Z,28.13
2023-01-25T14:23:03.830Z,24.97
2023-01-25T14:25:30.355Z,26.87
2023-01-25T14:27:58.920Z,22.83
2023-01-25T14:30:30.403Z,24.53
2023-01-25T14:32:57.953Z,25.10
2023-01-25T14:35:54.626Z,23.60
2023-01-25T14:38:26.421Z,25.97
2023-01-25T14:40:55.145Z,30.30
2023-01-25T14:43:22.503Z,25.23
2023-01-25T14:45:48.849Z,23.63
2023-01-25T14:48:33.865Z,27.97
2023-01-25T14:51:05.485Z,26.13
2023-01-25T14:53:31.908Z,22.03
2023-01-25T14:55:58.314Z,24.37
2023-01-25T14:58:25.343Z,26.07
2023-01-25T15:00:52.364Z,29.93
2023-01-25T15:03:18.783Z,25.00
2023-01-25T15:05:46.176Z,26.93
2023-01-25T15:08:12.439Z,26.63
2023-01-25T15:11:18.974Z,27.10
2023-01-25T15:13:45.441Z,24.90
2023-01-25T15:16:11.883Z,27.00
2023-01-25T15:18:51.729Z,26.60
2023-01-25T15:21:18.070Z,27.33
2023-01-25T15:23:45.380Z,30.50
2023-01-25T15:26:13.025Z,27.20
2023-01-25T15:28:39.430Z,29.80
2023-01-25T15:31:05.916Z,26.63
2023-01-25T15:33:32.571Z,29.67
2023-01-25T15:35:58.971Z,24.57
2023-01-25T15:38:25.606Z,29.93
2023-01-25T15:40:52.261Z,39.43
2023-01-25T15:43:19.278Z,28.20
2023-01-25T15:45:49.390Z,26.73
2023-01-25T15:48:20.051Z,26.13
2023-01-25T15:50:46.373Z,26.50
2023-01-25T15:53:16.436Z,30.47
2023-01-25T15:55:44.262Z,27.43
2023-01-25T15:58:13.984Z,30.87
2023-01-25T16:00:40.759Z,36.70
2023-01-25T16:03:07.767Z,23.47
2023-01-25T16:05:34.140Z,29.67
2023-01-25T16:08:00.458Z,29.63
2023-01-25T16:10:26.768Z,49.20
2023-01-25T16:12:53.083Z,28.83
2023-01-25T16:15:19.425Z,25.70
2023-01-25T16:17:45.840Z,28.37
2023-01-25T16:20:20.148Z,29.53
2023-01-25T16:22:47.124Z,37.58
2023-01-25T16:25:13.808Z,27.83
2023-01-25T16:27:40.169Z,16.20
2023-01-25T16:30:07.111Z,28.27
2023-01-25T16:32:33.425Z,21.07
2023-01-25T16:34:59.754Z,29.40
2023-01-25T16:37:26.527Z,15.70
2023-01-25T16:39:53.709Z,29.43
2023-01-25T16:42:22.432Z,25.03
2023-01-25T16:44:49.570Z,27.03
2023-01-25T16:47:15.876Z,29.00
2023-01-25T16:49:42.152Z,28.83
2023-01-25T16:52:10.608Z,26.37
2023-01-25T16:54:37.053Z,29.87
2023-01-25T16:57:15.115Z,31.70
2023-01-25T16:59:46.058Z,22.40
2023-01-25T17:02:12.759Z,26.07
2023-01-25T17:04:39.235Z,44.17
2023-01-25T17:07:05.565Z,28.60
2023-01-25T17:09:31.961Z,28.13
2023-01-25T17:11:58.311Z,27.53
2023-01-25T17:14:24.648Z,26.10
2023-01-25T17:16:53.600Z,31.57
2023-01-25T17:19:20.285Z,26.43
2023-01-25T17:21:46.793Z,25.20
2023-01-25T17:24:14.779Z,28.30
2023-01-25T17:26:41.195Z,26.03
2023-01-25T17:29:07.704Z,41.30
2023-01-25T17:31:34.702Z,29.83
2023-01-25T17:34:02.002Z,40.80
2023-01-25T17:36:28.320Z,31.30
2023-01-25T17:38:54.657Z,36.10
2023-01-25T17:41:21.115Z,24.00
2023-01-25T17:43:51.677Z,28.73
2023-01-25T17:46:22.674Z,30.83
2023-01-25T17:48:49.064Z,28.27
2023-01-25T17:51:15.388Z,26.97
2023-01-25T17:53:41.773Z,27.17
2023-01-25T17:56:08.719Z,31.57
2023-01-25T17:58:36.688Z,30.00
2023-01-25T18:01:14.356Z,30.30
2023-01-25T18:03:41.611Z,28.07
2023-01-25T18:06:09.422Z,27.23
2023-01-25T18:08:40.514Z,30.70
2023-01-25T18:11:11.204Z,26.13
2023-01-25T18:13:41.144Z,25.43
2023-01-25T18:16:09.420Z,26.13
2023-01-25T18:18:36.501Z,28.90
2023-01-25T18:21:03.751Z,28.93
2023-01-25T18:23:30.103Z,27.10
2023-01-25T18:25:56.400Z,25.33
2023-01-25T18:28:22.696Z,26.57
2023-01-25T18:30:53.549Z,23.77
2023-01-25T18:33:19.963Z,25.70
2023-01-25T18:35:48.364Z,29.17
2023-01-25T18:38:15.461Z,27.40
2023-01-25T18:40:43.696Z,31.30
2023-01-25T18:43:13.839Z,37.20
2023-01-25T18:45:40.174Z,31.53
2023-01-25T18:48:06.550Z,29.53
2023-01-25T18:50:33.396Z,32.17
2023-01-25T18:52:59.844Z,24.77
2023-01-25T18:55:27.668Z,30.80
2023-01-25T18:57:54.240Z,22.97
2023-01-25T19:00:20.658Z,27.33
2023-01-25T19:02:47.075Z,37.27
2023-01-25T19:05:14.353Z,28.03
2023-01-25T19:07:40.721Z,32.00
2023-01-25T19:10:07.279Z,23.37
2023-01-25T19:12:33.702Z,21.83
2023-01-25T19:15:00.143Z,22.87
2023-01-25T19:17:26.488Z,25.10
2023-01-25T19:19:52.806Z,29.27
2023-01-25T19:22:19.197Z,23.10
2023-01-25T19:24:45.917Z,25.13
2023-01-25T19:27:12.435Z,30.13
2023-01-25T19:29:39.125Z,27.27
2023-01-25T19:32:05.611Z,25.13
2023-01-25T19:34:32.000Z,26.47
2023-01-25T19:36:58.469Z,27.27
2023-01-25T19:39:25.868Z,27.10
2023-01-25T19:41:53.278Z,27.90
2023-01-25T19:44:20.670Z,36.90
2023-01-25T19:46:47.221Z,29.33
2023-01-25T19:49:14.410Z,25.37
2023-01-25T19:51:42.702Z,29.77
2023-01-25T19:54:15.694Z,28.50
2023-01-25T19:56:43.140Z,26.90
2023-01-25T19:59:16.649Z,27.50
2023-01-25T20:01:46.346Z,32.77
2023-01-25T20:04:14.170Z,29.73
2023-01-25T20:06:41.056Z,28.43
2023-01-25T20:09:07.441Z,29.30
2023-01-25T20:11:34.149Z,26.80
2023-01-25T20:14:04.667Z,29.40
2023-01-25T20:16:32.193Z,26.27
2023-01-25T20:18:58.694Z,35.23
2023-01-25T20:21:25.873Z,36.37
2023-01-25T20:23:58.062Z,36.93
2023-01-25T20:26:29.477Z,32.50
2023-01-25T20:28:56.826Z,36.40
2023-01-25T20:31:25.007Z,33.77
2023-01-25T20:33:52.875Z,38.90
2023-01-25T20:36:19.274Z,28.90
2023-01-25T20:38:46.007Z,25.30
2023-01-25T20:41:16.545Z,31.80
2023-01-25T20:43:49.894Z,32.97
2023-01-25T20:46:16.546Z,52.87
2023-01-25T20:48:43.234Z,31.87
2023-01-25T20:51:10.594Z,30.93
2023-01-25T20:53:37.132Z,29.97
2023-01-25T20:56:03.609Z,27.20
2023-01-25T20:58:29.900Z,28.77
2023-01-25T21:00:56.318Z,28.87
2023-01-25T21:03:23.047Z,29.97
2023-01-25T21:05:53.308Z,28.70
2023-01-25T21:08:19.678Z,28.90
2023-01-25T21:10:58.780Z,27.47
2023-01-25T21:13:25.904Z,24.60
2023-01-25T21:16:03.353Z,31.47
2023-01-25T21:18:32.794Z,27.13
2023-01-25T21:20:59.955Z,27.03
2023-01-25T21:23:26.271Z,24.80
2023-01-25T21:25:52.615Z,29.90
2023-01-25T21:28:18.901Z,26.17
2023-01-25T21:30:45.238Z,26.33
2023-01-25T21:33:11.581Z,27.97
2023-01-25T21:35:37.867Z,32.33
2023-01-25T21:38:04.193Z,27.83
2023-01-25T21:40:30.580Z,29.07
2023-01-25T21:42:57.151Z,27.80
2023-01-25T21:45:42.054Z,28.77
2023-01-25T21:48:08.381Z,55.70
2023-01-25T21:50:53.198Z,31.27
2023-01-25T21:53:19.532Z,31.30
2023-01-25T21:55:45.839Z,28.63
2023-01-25T21:58:12.508Z,34.17
2023-01-25T22:00:38.805Z,120.70
2023-01-25T22:03:05.194Z,31.27
2023-01-25T22:05:31.567Z,29.03
2023-01-25T22:08:00.769Z,30.70
2023-01-25T22:10:27.161Z,28.73
2023-01-25T22:12:53.495Z,26.97
2023-01-25T22:15:19.825Z,29.27
2023-01-25T22:17:46.124Z,24.37
2023-01-25T22:20:12.888Z,25.17
2023-01-25T22:22:39.323Z,22.90
2023-01-25T22:25:05.815Z,23.93
2023-01-25T22:27:44.557Z,24.93
2023-01-25T22:30:11.568Z,24.17
2023-01-25T22:32:38.297Z,23.80
2023-01-25T22:35:04.731Z,24.93
2023-01-25T22:37:31.032Z,22.13
2023-01-25T22:39:58.535Z,24.40
2023-01-25T22:42:25.480Z,21.63
2023-01-25T22:44:51.932Z,25.03
2023-01-25T22:47:18.224Z,24.43
2023-01-25T22:49:44.527Z,23.87
2023-01-25T22:52:10.854Z,22.50
2023-01-25T22:54:37.195Z,22.17
2023-01-25T22:57:03.540Z,22.10
2023-01-25T22:59:29.872Z,21.67
2023-01-25T23:01:56.172Z,22.83
2023-01-25T23:04:22.488Z,26.20
2023-01-25T23:06:49.138Z,27.43
2023-01-25T23:09:15.401Z,27.93
2023-01-25T23:11:41.728Z,21.47
2023-01-25T23:14:27.817Z,19.77
2023-01-25T23:17:14.176Z,22.57
2023-01-25T23:19:40.447Z,22.30
2023-01-25T23:22:06.748Z,22.00
2023-01-25T23:24:33.054Z,17.47
2023-01-25T23:26:59.346Z,20.67
2023-01-25T23:29:25.623Z,17.67
2023-01-25T23:31:51.961Z,20.20
2023-01-25T23:34:18.361Z,19.47
2023-01-25T23:36:44.668Z,23.60
2023-01-25T23:39:12.059Z,18.17
2023-01-25T23:41:38.348Z,21.43
2023-01-25T23:44:04.716Z,20.60
2023-01-25T23:46:31.036Z,23.10
2023-01-25T23:48:57.364Z,22.63
2023-01-25T23:51:23.692Z,20.70
2023-01-25T23:53:49.959Z,24.40
2023-01-25T23:56:17.345Z,22.27
2023-01-25T23:58:44.062Z,23.17
